createdAt,value
2022-08-30T00:02:31.607Z,15.41
2022-08-30T00:07:33.347Z,15.43
2022-08-30T00:12:35.892Z,15.55
2022-08-30T00:17:37.587Z,15.66
2022-08-30T00:22:39.307Z,15.68
2022-08-30T00:27:42.208Z,15.69
2022-08-30T00:32:45.029Z,15.81
2022-08-30T00:37:47.132Z,15.81
2022-08-30T00:42:50.769Z,15.84
2022-08-30T00:47:53.513Z,15.67
2022-08-30T00:52:57.233Z,15.39
2022-08-30T00:58:01.852Z,15.35
2022-08-30T01:03:09.253Z,15.31
2022-08-30T01:08:10.980Z,15.18
2022-08-30T01:13:13.846Z,15.16
2022-08-30T01:18:17.411Z,15.23
2022-08-30T01:23:20.004Z,14.99
2022-08-30T01:28:24.637Z,14.98
2022-08-30T01:33:26.293Z,15.00
2022-08-30T01:38:36.307Z,14.94
2022-08-30T01:43:37.974Z,15.11
2022-08-30T01:48:40.227Z,14.94
2022-08-30T01:53:42.991Z,14.80
2022-08-30T01:58:44.742Z,14.77
2022-08-30T02:03:46.469Z,14.55
2022-08-30T02:08:48.228Z,14.48
2022-08-30T02:13:49.947Z,14.57
2022-08-30T02:18:52.476Z,14.69
2022-08-30T02:23:54.313Z,14.71
2022-08-30T02:28:56.043Z,14.69
2022-08-30T02:34:00.914Z,14.63
2022-08-30T02:39:02.657Z,14.63
2022-08-30T02:44:04.752Z,14.59
2022-08-30T02:49:32.121Z,14.79
2022-08-30T02:54:32.993Z,14.78
2022-08-30T02:59:37.752Z,14.82
2022-08-30T03:04:40.997Z,14.87
2022-08-30T03:09:42.692Z,15.08
2022-08-30T03:14:44.382Z,15.15
2022-08-30T03:19:46.170Z,15.23
2022-08-30T03:24:47.837Z,15.26
2022-08-30T03:29:49.545Z,15.25
2022-08-30T03:34:51.261Z,15.26
2022-08-30T03:39:53.052Z,15.38
2022-08-30T03:44:55.481Z,15.41
2022-08-30T03:49:57.144Z,15.53
2022-08-30T03:55:00.680Z,15.59
2022-08-30T04:00:02.657Z,15.45
2022-08-30T04:05:14.103Z,15.66
2022-08-30T04:10:20.925Z,15.75
2022-08-30T04:15:22.595Z,15.79
2022-08-30T04:20:24.342Z,15.84
2022-08-30T04:25:26.832Z,16.03
2022-08-30T04:30:28.506Z,15.94
2022-08-30T04:35:30.174Z,15.87
2022-08-30T04:40:32.009Z,15.95
2022-08-30T04:45:33.836Z,16.02
2022-08-30T04:50:35.551Z,16.03
2022-08-30T04:55:46.456Z,16.09
2022-08-30T05:00:48.184Z,16.05
2022-08-30T05:05:50.260Z,16.20
2022-08-30T05:10:52.125Z,16.27
2022-08-30T05:15:53.788Z,16.38
2022-08-30T05:21:09.176Z,16.45
2022-08-30T05:26:13.779Z,16.30
2022-08-30T05:31:34.824Z,16.39
2022-08-30T05:36:37.117Z,16.35
2022-08-30T05:41:38.802Z,16.44
2022-08-30T05:46:45.596Z,16.64
2022-08-30T05:51:47.253Z,16.64
2022-08-30T05:56:48.949Z,16.57
2022-08-30T06:01:50.659Z,16.59
2022-08-30T06:06:52.343Z,16.55
2022-08-30T06:11:54.027Z,16.48
2022-08-30T06:16:55.671Z,16.45
2022-08-30T06:21:57.394Z,16.49
2022-08-30T06:26:59.104Z,16.49
2022-08-30T06:32:00.816Z,16.52
2022-08-30T06:37:02.508Z,16.64
2022-08-30T06:42:04.255Z,16.69
2022-08-30T06:47:07.988Z,16.69
2022-08-30T06:52:09.654Z,16.70
2022-08-30T06:57:12.956Z,16.54
2022-08-30T07:02:14.778Z,16.43
2022-08-30T07:07:16.481Z,16.45
2022-08-30T07:12:18.213Z,16.50
2022-08-30T07:17:38.378Z,16.55
2022-08-30T07:22:40.060Z,16.55
2022-08-30T07:27:41.876Z,16.58
2022-08-30T07:32:43.749Z,16.67
2022-08-30T07:37:45.493Z,16.88
2022-08-30T07:42:47.188Z,16.87
2022-08-30T07:47:48.842Z,16.96
2022-08-30T07:52:50.477Z,17.13
2022-08-30T07:57:52.173Z,17.19
2022-08-30T08:02:54.198Z,17.21
2022-08-30T08:07:55.932Z,17.46
2022-08-30T08:12:57.589Z,17.59
2022-08-30T08:17:59.368Z,17.67
2022-08-30T08:23:01.036Z,17.72
2022-08-30T08:28:02.789Z,17.76
2022-08-30T08:33:05.315Z,17.82
2022-08-30T08:38:07.004Z,17.94
2022-08-30T08:43:13.430Z,18.13
2022-08-30T08:48:59.693Z,18.33
2022-08-30T08:54:24.277Z,18.59
2022-08-30T08:59:25.995Z,18.67
2022-08-30T09:04:31.865Z,18.82
2022-08-30T09:09:35.551Z,19.01
2022-08-30T09:14:44.275Z,19.14
2022-08-30T09:19:54.049Z,19.09
2022-08-30T09:25:06.903Z,19.00
2022-08-30T09:30:19.813Z,19.07
2022-08-30T09:35:25.096Z,19.36
2022-08-30T09:40:29.286Z,19.46
2022-08-30T09:45:34.797Z,19.60
2022-08-30T09:50:36.520Z,19.65
2022-08-30T09:55:56.550Z,19.77
2022-08-30T10:01:12.072Z,19.94
2022-08-30T10:06:29.310Z,19.98
2022-08-30T10:11:39.764Z,20.06
2022-08-30T10:17:00.439Z,20.02
2022-08-30T10:22:05.889Z,20.07
2022-08-30T10:27:16.769Z,20.05
2022-08-30T10:32:55.658Z,20.19
2022-08-30T10:38:04.048Z,20.38
2022-08-30T10:43:09.619Z,20.50
2022-08-30T10:48:29.472Z,20.54
2022-08-30T10:53:50.664Z,20.64
2022-08-30T10:58:54.398Z,20.74
2022-08-30T11:04:23.427Z,20.78
2022-08-30T11:09:31.556Z,20.89
2022-08-30T11:14:35.195Z,21.24
2022-08-30T11:19:38.415Z,21.60
2022-08-30T11:25:10.191Z,21.71
2022-08-30T11:30:24.104Z,21.70
2022-08-30T11:35:46.054Z,21.72
2022-08-30T11:40:50.833Z,21.68
2022-08-30T11:45:55.420Z,21.66
2022-08-30T11:51:35.744Z,21.66
2022-08-30T11:56:43.524Z,21.91
2022-08-30T12:01:51.687Z,22.54
2022-08-30T12:07:08.161Z,23.37
2022-08-30T12:12:31.189Z,24.29
2022-08-30T12:18:03.614Z,25.23
2022-08-30T12:23:27.273Z,26.20
2022-08-30T12:28:29.065Z,26.67
2022-08-30T12:33:41.192Z,27.46
2022-08-30T12:38:44.944Z,27.51
2022-08-30T12:43:51.894Z,28.06
2022-08-30T12:48:53.574Z,28.47
2022-08-30T12:54:12.876Z,28.51
2022-08-30T13:00:05.049Z,28.32
2022-08-30T13:05:41.701Z,28.67
2022-08-30T13:10:56.661Z,29.04
2022-08-30T13:16:12.118Z,28.99
2022-08-30T13:21:30.928Z,28.35
2022-08-30T13:26:36.599Z,28.70
2022-08-30T13:31:38.414Z,28.52
2022-08-30T13:36:45.567Z,28.36
2022-08-30T13:41:47.266Z,27.89
2022-08-30T13:46:54.484Z,27.40
2022-08-30T13:52:19.383Z,26.82
2022-08-30T13:57:53.391Z,26.52
2022-08-30T14:02:45.476Z,26.17
2022-08-30T14:07:50.600Z,25.90
2022-08-30T14:12:53.051Z,25.72
2022-08-30T14:17:55.094Z,25.67
2022-08-30T14:22:56.777Z,26.23
2022-08-30T14:27:58.814Z,26.36
2022-08-30T14:33:00.471Z,26.84
2022-08-30T14:38:02.324Z,27.26
2022-08-30T14:43:04.040Z,27.73
2022-08-30T14:48:11.393Z,28.31
2022-08-30T14:53:13.464Z,28.87
2022-08-30T14:58:17.955Z,29.16
2022-08-30T15:03:19.948Z,28.47
2022-08-30T15:08:21.618Z,27.80
2022-08-30T15:13:23.446Z,27.32
2022-08-30T15:18:25.198Z,26.98
2022-08-30T15:23:27.724Z,26.88
2022-08-30T15:28:29.773Z,26.49
2022-08-30T15:33:31.809Z,26.16
2022-08-30T15:38:33.619Z,25.73
2022-08-30T15:43:35.557Z,25.33
2022-08-30T15:48:41.789Z,25.17
2022-08-30T15:53:47.557Z,24.92
2022-08-30T15:58:53.008Z,24.65
2022-08-30T16:03:54.997Z,24.67
2022-08-30T16:08:59.100Z,25.04
2022-08-30T16:14:00.768Z,25.37
2022-08-30T16:19:02.450Z,25.55
2022-08-30T16:24:05.036Z,25.71
2022-08-30T16:29:07.311Z,25.92
2022-08-30T16:34:11.195Z,25.98
2022-08-30T16:39:13.394Z,25.99
2022-08-30T16:44:15.993Z,26.09
2022-08-30T16:49:19.561Z,25.92
2022-08-30T16:54:21.326Z,25.71
2022-08-30T17:11:01.877Z,24.94
2022-08-30T17:16:04.526Z,24.92
2022-08-30T17:21:07.238Z,24.96
2022-08-30T17:26:09.366Z,24.83
2022-08-30T17:31:11.083Z,24.69
2022-08-30T17:36:12.858Z,24.34
2022-08-30T17:41:14.538Z,24.13
2022-08-30T17:46:20.611Z,23.80
2022-08-30T17:51:22.516Z,23.48
2022-08-30T17:56:24.613Z,23.18
2022-08-30T18:01:36.287Z,22.86
2022-08-30T18:06:38.215Z,22.51
2022-08-30T18:11:41.617Z,22.25
2022-08-30T18:16:53.237Z,22.03
2022-08-30T18:21:56.692Z,21.77
2022-08-30T18:26:58.374Z,21.62
2022-08-30T18:32:00.501Z,21.49
2022-08-30T18:37:02.547Z,21.21
2022-08-30T18:42:06.061Z,20.89
2022-08-30T18:47:09.635Z,20.69
2022-08-30T18:52:11.410Z,20.53
2022-08-30T18:57:13.066Z,20.28
2022-08-30T19:02:15.423Z,20.07
2022-08-30T19:07:18.018Z,19.94
2022-08-30T19:12:20.034Z,19.75
2022-08-30T19:17:22.717Z,19.62
2022-08-30T19:22:26.829Z,19.45
2022-08-30T19:27:37.248Z,19.33
2022-08-30T19:32:40.239Z,19.24
2022-08-30T19:37:43.335Z,19.13
2022-08-30T19:42:46.012Z,19.01
2022-08-30T19:47:48.382Z,18.96
2022-08-30T19:52:54.249Z,18.84
2022-08-30T19:57:56.906Z,18.68
2022-08-30T20:02:59.504Z,18.56
2022-08-30T20:08:03.341Z,18.38
2022-08-30T20:13:05.195Z,18.27
2022-08-30T20:18:13.342Z,18.21
2022-08-30T20:23:16.697Z,18.11
2022-08-30T20:28:24.622Z,17.98
2022-08-30T20:33:27.394Z,17.85
2022-08-30T20:38:29.408Z,17.72
2022-08-30T20:43:31.497Z,17.64
2022-08-30T20:48:33.599Z,17.64
2022-08-30T20:53:35.395Z,17.51
2022-08-30T20:58:37.556Z,17.43
2022-08-30T21:03:39.423Z,17.46
2022-08-30T21:08:41.140Z,17.44
2022-08-30T21:13:43.490Z,17.42
2022-08-30T21:18:45.202Z,17.38
2022-08-30T21:23:50.110Z,17.32
2022-08-30T21:28:52.694Z,17.19
2022-08-30T21:33:54.626Z,17.17
2022-08-30T21:39:00.786Z,17.06
2022-08-30T21:44:04.459Z,17.04
2022-08-30T21:49:07.141Z,16.99
2022-08-30T21:54:09.715Z,16.92
2022-08-30T21:59:11.668Z,16.94
2022-08-30T22:04:13.554Z,16.94
2022-08-30T22:09:15.376Z,16.91
2022-08-30T22:14:17.189Z,16.83
2022-08-30T22:19:23.110Z,16.82
2022-08-30T22:24:25.077Z,16.83
2022-08-30T22:29:26.756Z,16.79
2022-08-30T22:34:28.466Z,16.82
2022-08-30T22:39:30.133Z,16.74
2022-08-30T22:44:32.010Z,16.70
2022-08-30T22:49:33.685Z,16.72
2022-08-30T22:54:36.806Z,16.69
2022-08-30T22:59:38.537Z,16.63
2022-08-30T23:04:40.237Z,16.63
2022-08-30T23:09:41.918Z,16.58
2022-08-30T23:14:43.585Z,16.55
2022-08-30T23:19:45.273Z,16.53
2022-08-30T23:25:05.556Z,16.48
2022-08-30T23:30:33.292Z,16.42
2022-08-30T23:35:54.571Z,16.37
2022-08-30T23:41:14.901Z,16.27
2022-08-30T23:46:35.250Z,16.09
2022-08-30T23:51:55.739Z,15.98
2022-08-30T23:57:16.053Z,15.92
